Time;durP1;ratioP1;P1;durP2;ratioP2;P2;SDS_P1;SDS_P2;PMS_P1;PMS_P2;Temp;Humidity;BMP_temperature;BMP_pressure;BME280_temperature;BME280_humidity;BME280_pressure;Samples;Min_cycle;Max_cycle;Signal;HPM_P1;HPM_P2
2023/10/23 00:01:08;;;;;;;28.63;7.80;;;;;;;18.43;58.51;95340.34;5031551;28;20393;-81
2023/10/23 00:03:33;;;;;;;33.55;7.45;;;;;;;18.64;58.20;95352.00;5030964;28;20025;-81
2023/10/23 00:05:59;;;;;;;36.90;7.70;;;;;;;18.56;58.31;95368.94;5031109;28;20080;-81
2023/10/23 00:08:24;;;;;;;27.00;7.35;;;;;;;18.38;58.58;95351.25;5030348;28;20029;-81
2023/10/23 00:10:50;;;;;;;28.73;7.55;;;;;;;18.52;58.48;95368.78;5030885;28;20034;-81
2023/10/23 00:13:15;;;;;;;42.20;8.48;;;;;;;18.42;58.45;95352.97;5030194;28;20093;-81
2023/10/23 00:15:42;;;;;;;31.42;7.93;;;;;;;18.57;58.34;95367.03;5030395;28;20029;-81
2023/10/23 00:18:07;;;;;;;35.35;8.00;;;;;;;18.30;58.07;95312.56;5030779;28;20037;-81
2023/10/23 00:20:33;;;;;;;30.15;7.32;;;;;;;18.46;57.93;95335.09;5031986;28;20049;-81
2023/10/23 00:22:58;;;;;;;44.80;9.15;;;;;;;18.55;58.17;95347.72;5031234;28;20032;-82
2023/10/23 00:25:24;;;;;;;39.70;8.68;;;;;;;18.58;57.85;95337.19;5029475;28;20045;-81
2023/10/23 00:27:49;;;;;;;37.58;8.00;;;;;;;18.65;57.68;95350.91;5029978;28;20562;-81
2023/10/23 00:30:15;;;;;;;34.75;7.70;;;;;;;18.77;57.83;95367.13;5024781;28;20018;-81
2023/10/23 00:32:40;;;;;;;33.92;8.20;;;;;;;18.70;57.58;95358.00;5020968;28;20033;-80
2023/10/23 00:35:06;;;;;;;35.65;8.48;;;;;;;18.88;57.46;95375.66;5015800;28;20037;-80
2023/10/23 00:37:32;;;;;;;33.17;7.43;;;;;;;18.88;57.47;95379.13;5011964;28;20033;-80
2023/10/23 00:39:57;;;;;;;29.98;7.82;;;;;;;18.70;57.46;95355.31;5022523;28;20064;-80
2023/10/23 00:42:23;;;;;;;47.70;9.85;;;;;;;18.77;57.80;95361.78;5022581;28;20551;-81
2023/10/23 00:44:48;;;;;;;27.58;7.72;;;;;;;18.86;57.79;95381.34;5021015;28;20045;-81
2023/10/23 00:47:16;;;;;;;36.45;8.35;;;;;;;18.64;57.45;95329.72;5021471;28;20034;-81
2023/10/23 00:49:43;;;;;;;36.35;7.35;;;;;;;18.87;57.53;95371.38;5020663;28;20547;-82
2023/10/23 00:52:09;;;;;;;51.08;9.73;;;;;;;18.43;58.04;95325.03;5011524;28;20095;-82
2023/10/23 00:54:34;;;;;;;34.53;8.35;;;;;;;18.47;58.28;95349.31;5012509;28;20105;-82
2023/10/23 00:57:02;;;;;;;35.22;8.15;;;;;;;18.56;58.50;95366.25;5013639;28;20037;-82
2023/10/23 00:59:27;;;;;;;39.42;9.10;;;;;;;18.56;58.72;95376.16;5011699;28;20084;-82
2023/10/23 01:01:53;;;;;;;32.75;7.38;;;;;;;18.47;58.86;95349.31;5011034;28;20029;-83
2023/10/23 01:04:20;;;;;;;27.75;7.55;;;;;;;18.51;58.43;95348.38;5011725;28;20034;-82
2023/10/23 01:06:46;;;;;;;35.35;9.10;;;;;;;18.15;59.53;95339.13;5011833;28;20045;-82
2023/10/23 01:09:11;;;;;;;36.85;8.07;;;;;;;17.89;60.06;95298.88;5012406;28;20092;-82
2023/10/23 01:11:37;;;;;;;39.13;8.50;;;;;;;18.05;59.65;95302.66;5012359;28;20042;-82
2023/10/23 01:14:02;;;;;;;27.88;7.70;;;;;;;18.38;59.61;95352.06;5005594;28;20037;-83
2023/10/23 01:16:28;;;;;;;42.15;8.20;;;;;;;18.49;59.41;95371.28;5004307;28;20038;-82
2023/10/23 01:18:53;;;;;;;35.78;8.57;;;;;;;18.42;59.51;95358.34;5004216;28;20034;-82
2023/10/23 01:21:19;;;;;;;38.10;8.15;;;;;;;18.02;59.44;95284.50;5007219;28;20464;-82
2023/10/23 01:23:47;;;;;;;29.20;7.68;;;;;;;18.28;59.73;95349.69;5016196;28;20068;-82
2023/10/23 01:26:13;;;;;;;38.97;9.55;;;;;;;18.20;59.50;95299.47;5018590;28;20033;-82
2023/10/23 01:28:38;;;;;;;29.40;8.32;;;;;;;18.62;59.42;95356.13;5018712;28;20044;-83
2023/10/23 01:31:04;;;;;;;36.22;8.73;;;;;;;18.53;59.31;95340.00;5016511;28;20341;-82
2023/10/23 01:33:29;;;;;;;40.05;8.25;;;;;;;18.55;59.56;95351.22;5014712;28;20054;-82
2023/10/23 01:35:55;;;;;;;30.77;8.10;;;;;;;18.43;59.68;95335.75;5013781;28;20037;-82
2023/10/23 01:38:20;;;;;;;45.65;10.52;;;;;;;18.00;59.55;95259.91;5014614;28;20117;-81
2023/10/23 01:40:46;;;;;;;44.03;8.07;;;;;;;18.70;59.61;95360.69;5021662;28;20041;-80
2023/10/23 01:43:11;;;;;;;32.85;8.57;;;;;;;18.51;59.63;95328.78;5023175;28;20141;-80
2023/10/23 01:45:37;;;;;;;46.03;8.30;;;;;;;18.67;59.56;95356.75;5024423;28;20041;-81
2023/10/23 01:48:03;;;;;;;31.52;7.93;;;;;;;18.61;59.82;95352.66;5017979;28;20031;-81
2023/10/23 01:50:28;;;;;;;28.20;8.25;;;;;;;18.63;59.68;95338.91;5007151;28;20030;-80
2023/10/23 01:52:54;;;;;;;43.67;8.60;;;;;;;18.49;59.97;95361.34;5019556;28;20133;-80
2023/10/23 01:55:19;;;;;;;40.05;8.45;;;;;;;18.61;59.95;95358.03;5036734;28;20037;-80
2023/10/23 01:57:45;;;;;;;29.65;8.80;;;;;;;18.57;59.49;95340.19;5013542;28;20089;-81
2023/10/23 02:00:12;;;;;;;43.55;8.98;;;;;;;18.62;59.32;95340.00;5008973;28;20026;-79
2023/10/23 02:02:37;;;;;;;29.00;8.18;;;;;;;18.49;60.35;95372.06;5014817;28;20030;-79
2023/10/23 02:05:03;;;;;;;29.35;7.85;;;;;;;18.35;60.61;95366.09;4999939;28;20552;-78
2023/10/23 02:07:29;;;;;;;40.67;8.35;;;;;;;18.34;60.01;95337.66;5007229;28;20029;-78
2023/10/23 02:09:58;;;;;;;34.50;8.80;;;;;;;18.52;60.00;95360.72;5014751;28;20524;-79
2023/10/23 02:12:24;;;;;;;37.67;7.65;;;;;;;18.22;60.40;95331.38;5017870;28;20071;-79
2023/10/23 02:14:52;;;;;;;35.20;8.80;;;;;;;18.31;60.43;95337.53;5015585;28;20025;-79
2023/10/23 02:17:18;;;;;;;28.65;8.50;;;;;;;18.44;60.92;95372.25;5016905;28;20033;-78
2023/10/23 02:19:44;;;;;;;41.30;8.70;;;;;;;18.44;60.82;95371.47;5017192;28;20040;-79
2023/10/23 02:22:09;;;;;;;32.67;8.70;;;;;;;18.42;60.79;95373.66;5017556;28;20026;-78
2023/10/23 02:24:35;;;;;;;35.25;8.65;;;;;;;18.10;61.44;95361.53;5017243;28;20029;-79
2023/10/23 02:27:00;;;;;;;39.10;9.25;;;;;;;18.38;61.33;95378.91;5016966;28;20022;-79
2023/10/23 02:29:26;;;;;;;38.03;8.50;;;;;;;18.44;60.88;95377.63;5016764;28;20416;-79
2023/10/23 02:31:51;;;;;;;33.17;8.07;;;;;;;18.25;61.31;95363.72;5016332;28;20040;-79
2023/10/23 02:34:17;;;;;;;29.85;9.10;;;;;;;18.04;61.11;95326.00;5016194;28;20045;-79
2023/10/23 02:36:43;;;;;;;31.80;8.50;;;;;;;18.30;61.17;95366.28;5016846;28;20074;-79
2023/10/23 02:39:09;;;;;;;28.15;7.47;;;;;;;18.08;61.46;95344.94;5017983;28;20029;-78
2023/10/23 02:41:35;;;;;;;28.13;7.68;;;;;;;18.34;61.27;95379.84;5016293;28;20062;-78
2023/10/23 02:44:01;;;;;;;43.65;9.85;;;;;;;18.34;60.97;95367.19;5017461;28;20037;-78
2023/10/23 02:46:26;;;;;;;31.88;8.85;;;;;;;18.12;61.13;95337.84;5031069;28;20044;-78
2023/10/23 02:48:52;;;;;;;26.77;7.00;;;;;;;17.73;60.82;95275.19;5019861;28;20041;-79
2023/10/23 02:51:18;;;;;;;31.35;9.52;;;;;;;18.37;60.54;95371.94;5014783;28;20033;-82
2023/10/23 02:53:43;;;;;;;37.20;7.72;;;;;;;18.43;60.64;95383.31;5014299;28;20101;-82
2023/10/23 02:56:12;;;;;;;35.03;9.35;;;;;;;18.21;60.21;95343.22;5016250;28;20053;-82
2023/10/23 02:58:38;;;;;;;39.40;9.30;;;;;;;18.20;60.35;95341.63;5030034;28;20496;-82
2023/10/23 03:01:20;;;;;;;39.28;8.20;;;;;;;18.36;59.54;95372.25;5013860;28;20037;-82
2023/10/23 03:03:47;;;;;;;32.55;6.95;;;;;;;18.13;59.29;95326.81;5013983;28;20033;-82
2023/10/23 03:06:12;;;;;;;32.70;7.45;;;;;;;18.17;59.21;95345.72;5013578;28;20053;-82
2023/10/23 03:08:38;;;;;;;36.28;9.25;;;;;;;18.05;59.11;95327.59;5015124;28;20030;-82
2023/10/23 03:11:05;;;;;;;40.45;8.35;;;;;;;18.25;59.17;95357.56;5013924;28;20137;-82
2023/10/23 03:13:31;;;;;;;32.80;7.90;;;;;;;18.24;59.18;95369.41;5014588;28;20455;-82
2023/10/23 03:15:56;;;;;;;34.55;7.80;;;;;;;17.98;59.11;95345.28;5013484;28;20333;-82
2023/10/23 03:18:22;;;;;;;40.25;8.13;;;;;;;18.28;59.23;95384.59;5014169;28;20121;-82
2023/10/23 03:20:47;;;;;;;32.75;7.70;;;;;;;17.87;59.43;95333.25;5013058;28;20037;-82
2023/10/23 03:23:13;;;;;;;41.22;8.93;;;;;;;17.94;59.24;95341.63;5013413;28;20186;-81
2023/10/23 03:25:38;;;;;;;43.47;9.02;;;;;;;18.15;59.21;95379.38;5013866;28;20112;-82
2023/10/23 03:28:04;;;;;;;50.47;8.10;;;;;;;18.17;59.34;95385.19;5012125;28;20034;-82
2023/10/23 03:30:29;;;;;;;38.28;8.98;;;;;;;17.96;59.86;95369.75;5013925;28;20037;-82
2023/10/23 03:32:55;;;;;;;44.45;8.43;;;;;;;17.96;59.96;95371.63;5018389;28;20037;-82
2023/10/23 03:35:20;;;;;;;35.50;7.78;;;;;;;17.99;60.14;95366.44;5024922;28;20095;-83
2023/10/23 03:37:46;;;;;;;37.00;8.60;;;;;;;17.92;60.33;95359.97;5012011;28;20037;-82
2023/10/23 03:40:12;;;;;;;38.08;9.50;;;;;;;18.07;60.55;95392.50;5012279;28;20044;-82
2023/10/23 03:42:38;;;;;;;40.15;8.70;;;;;;;17.90;61.37;95391.66;5013809;28;20038;-83
2023/10/23 03:45:04;;;;;;;37.25;8.38;;;;;;;17.97;61.19;95381.25;5012358;28;20037;-83
2023/10/23 03:47:30;;;;;;;45.50;9.55;;;;;;;18.08;61.07;95382.50;5025024;28;20037;-83
2023/10/23 03:49:55;;;;;;;36.53;8.35;;;;;;;17.76;61.14;95342.75;5003750;28;20429;-83
2023/10/23 03:52:21;;;;;;;50.22;9.10;;;;;;;17.88;60.94;95359.78;5008049;28;20386;-83
2023/10/23 03:54:46;;;;;;;27.73;8.32;;;;;;;17.94;61.17;95379.19;5014722;28;20058;-83
2023/10/23 03:57:12;;;;;;;29.90;7.90;;;;;;;17.63;61.83;95361.31;5011589;28;20038;-83
2023/10/23 03:59:41;;;;;;;46.22;8.88;;;;;;;17.69;61.76;95362.00;5008928;28;20034;-80
2023/10/23 04:02:07;;;;;;;33.80;8.10;;;;;;;17.65;60.95;95345.72;5016939;28;20038;-80
2023/10/23 04:04:32;;;;;;;56.50;9.90;;;;;;;17.64;61.50;95357.53;5007504;28;20507;-81
2023/10/23 04:06:58;;;;;;;36.92;8.63;;;;;;;17.52;61.81;95370.75;5011236;28;20354;-81
2023/10/23 04:09:23;;;;;;;41.17;8.57;;;;;;;17.56;61.77;95371.69;5007844;28;20420;-81
2023/10/23 04:11:49;;;;;;;38.65;10.70;;;;;;;17.75;61.55;95376.81;4999282;28;20034;-80
2023/10/23 04:14:14;;;;;;;50.47;9.20;;;;;;;17.68;61.45;95363.09;5020129;28;20057;-81
2023/10/23 04:16:40;;;;;;;48.85;10.30;;;;;;;17.93;61.11;95388.34;5020905;28;20102;-80
2023/10/23 04:19:05;;;;;;;32.17;9.98;;;;;;;17.69;61.01;95344.00;5012178;28;20049;-81
2023/10/23 04:21:31;;;;;;;43.85;10.70;;;;;;;17.63;60.95;95339.88;5005598;28;20045;-79
2023/10/23 04:23:56;;;;;;;46.13;9.43;;;;;;;18.00;60.58;95392.13;5011714;28;20049;-80
2023/10/23 04:26:22;;;;;;;30.75;9.38;;;;;;;18.08;59.78;95401.31;5001287;28;20274;-79
2023/10/23 04:28:47;;;;;;;52.38;9.63;;;;;;;18.06;59.82;95400.84;4993025;28;20654;-79
2023/10/23 04:31:13;;;;;;;51.17;9.82;;;;;;;17.98;59.35;95389.00;4983501;28;20096;-81
2023/10/23 04:33:38;;;;;;;56.45;10.15;;;;;;;17.97;59.51;95382.06;4955425;28;20061;-82
2023/10/23 04:36:04;;;;;;;42.92;9.55;;;;;;;18.13;59.08;95403.84;4969070;28;20310;-82
2023/10/23 04:38:31;;;;;;;50.20;11.98;;;;;;;18.00;58.82;95402.09;4989283;28;20040;-81
2023/10/23 04:40:56;;;;;;;48.47;12.23;;;;;;;17.96;58.39;95385.84;4989951;28;20067;-82
2023/10/23 04:43:22;;;;;;;44.85;10.23;;;;;;;17.81;58.57;95372.88;4981145;28;20741;-82
2023/10/23 04:45:52;;;;;;;45.50;11.98;;;;;;;17.76;58.40;95359.63;4989987;28;20507;-80
2023/10/23 04:48:18;;;;;;;42.67;9.82;;;;;;;17.74;58.85;95381.41;4986345;28;20061;-82
2023/10/23 04:50:43;;;;;;;54.05;11.82;;;;;;;17.86;58.45;95385.34;4998694;28;20053;-82
2023/10/23 04:53:09;;;;;;;55.85;11.77;;;;;;;17.97;58.20;95410.78;4998059;28;20037;-80
2023/10/23 04:55:36;;;;;;;47.72;9.80;;;;;;;17.88;58.24;95375.88;4997357;28;20116;-81
2023/10/23 04:58:02;;;;;;;43.65;10.15;;;;;;;17.90;58.53;95380.94;4983749;28;20054;-80
2023/10/23 05:00:28;;;;;;;50.50;10.80;;;;;;;18.03;58.58;95410.31;4990713;28;20038;-81
2023/10/23 05:02:54;;;;;;;42.42;9.80;;;;;;;18.08;58.54;95412.03;4991587;28;20084;-81
2023/10/23 05:05:20;;;;;;;37.30;9.57;;;;;;;18.11;58.19;95414.09;4986012;28;20066;-82
2023/10/23 05:07:45;;;;;;;44.15;10.93;;;;;;;18.11;58.52;95416.78;5001527;28;20052;-82
2023/10/23 05:10:11;;;;;;;41.03;10.88;;;;;;;17.66;58.58;95368.75;5012053;28;20053;-81
2023/10/23 05:12:37;;;;;;;55.95;10.20;;;;;;;18.06;58.80;95428.47;5026249;22;21141;-78
2023/10/23 05:15:04;;;;;;;60.35;10.13;;;;;;;18.15;58.47;95425.00;5009492;28;20457;-78
2023/10/23 05:17:29;;;;;;;45.25;11.95;;;;;;;17.89;58.86;95401.63;5003989;28;20100;-78
2023/10/23 05:19:55;;;;;;;44.58;9.90;;;;;;;17.83;59.05;95405.56;5010693;28;20420;-78
2023/10/23 05:22:20;;;;;;;37.28;10.75;;;;;;;18.04;58.63;95427.19;4975168;28;20480;-78
2023/10/23 05:24:47;;;;;;;46.13;9.60;;;;;;;18.00;58.46;95420.91;4985131;28;20124;-78
2023/10/23 05:27:13;;;;;;;45.78;10.02;;;;;;;18.05;58.75;95423.41;5018620;28;20033;-78
2023/10/23 05:29:39;;;;;;;44.55;11.27;;;;;;;18.01;58.81;95425.91;4994715;28;20033;-78
2023/10/23 05:32:04;;;;;;;45.63;10.73;;;;;;;18.10;58.73;95442.03;4995143;28;20538;-77
2023/10/23 05:34:30;;;;;;;50.10;10.90;;;;;;;17.80;59.14;95414.22;4988274;28;20496;-77
2023/10/23 05:36:56;;;;;;;57.40;10.90;;;;;;;17.31;59.47;95341.06;5006269;28;20452;-76
2023/10/23 05:39:21;;;;;;;41.20;10.77;;;;;;;18.11;59.21;95451.69;5013948;28;20037;-77
2023/10/23 05:41:52;;;;;;;51.05;11.18;;;;;;;17.79;58.86;95385.00;5007586;28;20064;-77
2023/10/23 05:44:21;;;;;;;47.20;10.07;;;;;;;17.01;58.92;95258.06;5008073;28;20044;-78
2023/10/23 05:46:50;;;;;;;59.95;9.90;;;;;;;17.24;58.67;95303.19;5010733;28;20045;-77
2023/10/23 05:49:15;;;;;;;38.08;10.00;;;;;;;17.29;59.07;95334.44;5031929;28;20063;-77
2023/10/23 05:51:41;;;;;;;41.90;10.15;;;;;;;16.95;59.07;95278.84;5017682;28;20033;-77
2023/10/23 05:54:08;;;;;;;37.78;10.00;;;;;;;17.07;59.34;95308.50;5014840;28;20439;-75
2023/10/23 05:56:33;;;;;;;47.15;9.27;;;;;;;18.00;59.57;95440.44;5003997;28;20082;-74
2023/10/23 05:58:59;;;;;;;47.67;10.48;;;;;;;17.62;59.84;95385.81;4999142;28;20471;-75
2023/10/23 06:01:24;;;;;;;49.65;11.57;;;;;;;17.86;59.66;95417.53;5003779;28;20599;-75
2023/10/23 06:03:50;;;;;;;44.33;10.88;;;;;;;18.01;59.21;95425.91;5013548;28;20025;-77
2023/10/23 06:06:15;;;;;;;52.05;12.82;;;;;;;17.80;59.27;95389.28;4995483;28;20102;-77
2023/10/23 06:08:41;;;;;;;41.33;10.55;;;;;;;18.03;59.38;95444.41;4972740;28;20053;-77
2023/10/23 06:11:11;;;;;;;54.05;12.15;;;;;;;17.93;59.46;95421.34;4993139;28;21111;-80
2023/10/23 06:13:37;;;;;;;31.98;10.18;;;;;;;18.10;59.15;95432.09;4955639;28;20446;-78
2023/10/23 06:16:07;;;;;;;45.70;11.18;;;;;;;18.30;59.01;95446.81;4973723;28;20037;-78
2023/10/23 06:18:34;;;;;;;35.80;9.65;;;;;;;18.06;59.03;95423.09;4989375;28;20065;-76
2023/10/23 06:21:03;;;;;;;57.78;12.02;;;;;;;18.41;58.62;95452.63;4968182;28;20140;-75
2023/10/23 06:23:31;;;;;;;52.45;11.05;;;;;;;18.38;58.25;95462.13;4981938;28;20042;-76
2023/10/23 06:25:57;;;;;;;58.97;12.70;;;;;;;18.22;58.28;95428.81;4988038;28;20037;-77
2023/10/23 06:28:22;;;;;;;52.42;10.48;;;;;;;18.39;58.19;95452.94;5003400;28;20417;-76
2023/10/23 06:30:47;;;;;;;50.83;13.30;;;;;;;18.40;58.24;95453.75;4997857;28;20041;-76
2023/10/23 06:33:13;;;;;;;46.13;10.63;;;;;;;18.23;57.89;95406.22;5009463;28;20048;-76
2023/10/23 06:35:38;;;;;;;48.65;11.52;;;;;;;18.36;57.74;95439.38;5007896;28;20033;-76
2023/10/23 06:38:04;;;;;;;51.42;10.45;;;;;;;18.65;57.82;95476.38;4997179;28;20045;-77
2023/10/23 06:40:29;;;;;;;46.33;11.13;;;;;;;18.55;58.00;95476.66;5008550;28;20634;-75
2023/10/23 06:42:55;;;;;;;58.10;10.65;;;;;;;18.49;57.88;95443.78;5016121;28;20064;-77
2023/10/23 06:45:20;;;;;;;55.05;12.20;;;;;;;18.62;57.73;95453.59;5012202;28;20033;-77
2023/10/23 06:47:49;;;;;;;57.58;12.57;;;;;;;18.57;57.56;95439.56;5012912;28;20049;-76
2023/10/23 06:50:15;;;;;;;59.22;10.45;;;;;;;18.73;57.24;95462.94;5004056;28;20109;-78
2023/10/23 06:52:42;;;;;;;47.85;11.27;;;;;;;18.96;57.23;95484.25;5007925;28;20589;-76
2023/10/23 06:55:08;;;;;;;57.25;10.93;;;;;;;19.01;57.25;95492.13;5003306;28;20516;-76
2023/10/23 06:57:35;;;;;;;44.67;11.85;;;;;;;18.91;57.41;95500.53;4997799;28;20037;-77
2023/10/23 07:00:01;;;;;;;40.60;11.75;;;;;;;18.99;57.13;95481.72;5018956;28;20037;-76
2023/10/23 07:02:26;;;;;;;55.58;13.25;;;;;;;18.68;56.90;95424.72;5025190;28;20114;-77
2023/10/23 07:04:52;;;;;;;54.15;12.13;;;;;;;19.04;56.97;95500.34;5012181;28;20029;-75
2023/10/23 07:07:18;;;;;;;44.03;11.02;;;;;;;19.28;56.76;95503.31;5000977;28;20071;-77
2023/10/23 07:09:43;;;;;;;52.35;12.30;;;;;;;19.27;56.86;95503.63;5021439;28;20144;-75
2023/10/23 07:12:09;;;;;;;57.50;13.13;;;;;;;19.03;56.29;95447.72;5000513;28;20526;-76
2023/10/23 07:14:34;;;;;;;54.50;12.35;;;;;;;19.14;56.23;95461.59;5013702;28;20549;-75
2023/10/23 07:17:00;;;;;;;55.83;12.30;;;;;;;19.27;56.36;95471.38;5014339;28;20041;-76
2023/10/23 07:19:25;;;;;;;48.72;12.27;;;;;;;19.43;56.41;95502.00;5008457;28;20033;-74
2023/10/23 07:21:51;;;;;;;61.08;12.20;;;;;;;19.13;56.86;95468.09;5020154;28;20051;-74
2023/10/23 07:24:16;;;;;;;35.83;12.10;;;;;;;19.40;56.49;95497.25;5012120;28;20117;-74
2023/10/23 07:26:42;;;;;;;54.13;12.95;;;;;;;19.36;56.28;95472.13;5021401;28;20113;-75
2023/10/23 07:29:08;;;;;;;54.53;12.75;;;;;;;19.54;56.52;95489.81;5017742;28;20045;-77
2023/10/23 07:31:36;;;;;;;64.60;12.60;;;;;;;19.65;56.49;95498.31;5010391;28;20048;-76
2023/10/23 07:34:03;;;;;;;55.17;12.65;;;;;;;19.63;56.34;95492.47;5011402;28;20034;-74
2023/10/23 07:36:30;;;;;;;52.78;14.35;;;;;;;19.68;56.24;95486.13;4997586;28;20045;-76
2023/10/23 07:38:55;;;;;;;56.72;15.20;;;;;;;19.74;55.96;95496.38;4935106;28;20612;-76
2023/10/23 07:41:21;;;;;;;68.22;14.57;;;;;;;19.58;56.30;95482.69;4955669;28;20061;-75
2023/10/23 07:43:46;;;;;;;61.00;14.93;;;;;;;19.72;56.23;95490.53;4997694;28;20118;-75
2023/10/23 07:46:12;;;;;;;67.70;15.20;;;;;;;19.69;56.09;95469.63;5007959;28;20114;-76
2023/10/23 07:48:38;;;;;;;47.47;14.70;;;;;;;19.78;55.81;95489.22;5015225;28;20041;-75
2023/10/23 07:51:04;;;;;;;57.58;13.45;;;;;;;19.90;55.48;95469.72;5018382;28;20068;-75
2023/10/23 07:53:35;;;;;;;59.17;13.45;;;;;;;19.78;55.55;95451.56;4997745;28;20485;-77
2023/10/23 07:56:00;;;;;;;62.33;14.90;;;;;;;20.03;55.28;95490.22;4961290;28;20091;-78
2023/10/23 07:58:26;;;;;;;64.28;15.63;;;;;;;20.07;55.31;95490.34;5011370;28;20048;-77
2023/10/23 08:01:02;;;;;;;64.85;13.93;;;;;;;20.25;54.81;95499.91;5016145;28;20052;-77
2023/10/23 08:03:27;;;;;;;63.75;13.82;;;;;;;20.01;54.00;95446.69;5008920;28;20061;-76
2023/10/23 08:05:53;;;;;;;52.70;13.05;;;;;;;20.09;53.71;95467.38;5005713;28;20144;-77
2023/10/23 08:08:18;;;;;;;52.17;13.30;;;;;;;20.33;53.66;95493.69;5009066;28;20167;-76
2023/10/23 08:10:44;;;;;;;69.25;14.45;;;;;;;20.38;53.31;95504.28;5009214;28;20061;-76
2023/10/23 08:13:09;;;;;;;83.68;15.27;;;;;;;20.28;53.35;95496.56;4993612;28;20088;-77
2023/10/23 08:15:35;;;;;;;80.72;14.15;;;;;;;20.26;53.63;95488.81;5028967;28;20052;-76
2023/10/23 08:18:01;;;;;;;47.33;13.55;;;;;;;20.33;53.34;95467.56;5015416;28;20045;-77
2023/10/23 08:20:26;;;;;;;74.50;15.35;;;;;;;20.37;53.95;95490.03;5017773;28;20428;-75
2023/10/23 08:22:52;;;;;;;67.75;15.00;;;;;;;20.34;53.47;95462.97;5021093;28;20112;-76
2023/10/23 08:25:17;;;;;;;55.80;15.93;;;;;;;20.47;53.50;95474.59;5012807;28;20045;-76
2023/10/23 08:27:42;;;;;;;70.43;15.23;;;;;;;20.35;53.50;95454.56;5007573;28;20037;-76
2023/10/23 08:30:08;;;;;;;59.25;16.25;;;;;;;20.64;53.46;95483.34;4999557;28;20044;-76
2023/10/23 08:32:35;;;;;;;71.63;16.23;;;;;;;20.44;53.34;95451.81;5010880;28;20040;-77
2023/10/23 08:35:02;;;;;;;53.72;16.20;;;;;;;20.61;53.80;95470.50;5008315;28;20033;-78
2023/10/23 08:37:28;;;;;;;56.63;15.02;;;;;;;20.69;53.88;95480.44;5016918;28;20041;-76
2023/10/23 08:39:53;;;;;;;63.25;13.80;;;;;;;20.70;53.88;95483.91;5006279;28;20511;-77
2023/10/23 08:42:21;;;;;;;54.03;13.70;;;;;;;20.73;54.10;95478.66;5016453;28;20033;-77
2023/10/23 08:44:48;;;;;;;66.18;14.25;;;;;;;20.74;53.78;95465.97;5014438;28;20063;-76
2023/10/23 08:47:14;;;;;;;63.10;14.68;;;;;;;20.79;53.69;95465.75;5025397;28;20064;-77
2023/10/23 08:49:40;;;;;;;53.97;13.90;;;;;;;20.64;53.63;95447.50;5015840;28;20049;-79
2023/10/23 08:52:10;;;;;;;59.08;15.25;;;;;;;20.75;54.14;95479.09;5036133;28;20392;-79
2023/10/23 08:54:36;;;;;;;58.35;15.95;;;;;;;20.55;54.68;95469.13;5019708;28;20041;-75
2023/10/23 08:57:02;;;;;;;64.07;15.65;;;;;;;20.43;54.20;95425.97;5022856;28;20556;-75
2023/10/23 08:59:28;;;;;;;42.00;10.68;;;;;;;20.54;55.49;95485.63;5013808;28;20049;-76
2023/10/23 09:01:54;;;;;;;42.08;10.52;;;;;;;20.39;55.58;95452.78;5020747;28;20033;-76
2023/10/23 09:04:19;;;;;;;59.25;13.25;;;;;;;20.31;55.45;95452.81;5024404;28;20041;-75
2023/10/23 09:06:45;;;;;;;31.45;10.38;;;;;;;20.51;55.31;95460.16;5024117;28;20025;-76
2023/10/23 09:09:11;;;;;;;43.45;10.75;;;;;;;20.78;54.99;95481.16;5013961;28;20179;-76
2023/10/23 09:11:48;;;;;;;45.55;10.48;;;;;;;20.79;55.34;95471.16;5019677;28;20515;-78
2023/10/23 09:14:28;;;;;;;38.03;10.93;;;;;;;20.84;55.28;95475.53;5018159;28;20115;-78
2023/10/23 09:16:55;;;;;;;53.28;11.80;;;;;;;20.82;55.01;95472.41;5015705;28;20065;-77
2023/10/23 09:19:38;;;;;;;45.88;10.23;;;;;;;20.73;55.32;95449.03;5019868;28;20047;-77
2023/10/23 09:22:04;;;;;;;47.35;10.25;;;;;;;20.68;55.17;95449.22;5022654;28;20091;-80
2023/10/23 09:24:30;;;;;;;40.47;10.35;;;;;;;20.59;55.59;95448.50;5034916;28;20051;-77
2023/10/23 09:26:56;;;;;;;47.78;9.38;;;;;;;20.74;55.58;95463.28;5031572;28;20065;-77
2023/10/23 09:29:23;;;;;;;46.75;9.48;;;;;;;20.72;55.09;95419.69;5038725;28;20137;-79
2023/10/23 09:31:50;;;;;;;39.25;9.63;;;;;;;20.61;54.75;95383.50;5040919;28;20025;-78
2023/10/23 09:34:18;;;;;;;46.22;10.57;;;;;;;21.15;54.27;95470.50;5037695;28;20045;-77
2023/10/23 09:36:45;;;;;;;39.33;9.80;;;;;;;20.97;54.80;95464.50;5035695;28;20045;-78
2023/10/23 09:39:11;;;;;;;58.83;11.70;;;;;;;21.03;54.31;95446.19;5037162;28;20040;-78
2023/10/23 09:41:37;;;;;;;39.15;9.95;;;;;;;20.66;54.10;95384.09;5038429;28;20045;-77
2023/10/23 09:44:04;;;;;;;58.03;9.98;;;;;;;21.15;53.75;95435.44;5042179;28;20025;-77
2023/10/23 09:46:31;;;;;;;44.53;10.38;;;;;;;21.45;53.52;95433.38;5041221;28;20037;-78
2023/10/23 09:49:03;;;;;;;39.50;10.27;;;;;;;21.49;53.15;95418.88;5043633;28;20097;-77
2023/10/23 09:51:36;;;;;;;45.50;10.40;;;;;;;21.93;52.65;95451.50;5047491;28;20040;-78
2023/10/23 09:54:15;;;;;;;41.13;10.45;;;;;;;21.66;52.19;95403.59;5044240;28;20122;-78
2023/10/23 09:56:50;;;;;;;51.20;9.43;;;;;;;22.09;52.00;95447.00;5040238;28;20782;-77
2023/10/23 09:59:18;;;;;;;45.10;11.15;;;;;;;22.13;51.96;95445.19;5044300;28;20025;-77
2023/10/23 10:01:50;;;;;;;43.25;10.38;;;;;;;22.49;51.64;95440.84;5045819;28;20037;-78
2023/10/23 10:04:32;;;;;;;38.40;10.55;;;;;;;22.91;50.65;95438.56;5054736;23;20069;-78
2023/10/23 10:07:25;;;;;;;39.05;10.30;;;;;;;23.19;49.55;95433.13;5041902;28;20057;-78
2023/10/23 10:09:51;;;;;;;37.47;9.77;;;;;;;23.13;49.08;95412.88;5047388;28;20025;-80
2023/10/23 10:12:18;;;;;;;31.60;8.98;;;;;;;23.49;48.31;95382.13;5039876;28;20067;-79
2023/10/23 10:14:46;;;;;;;35.53;10.48;;;;;;;24.40;47.19;95421.34;5038098;28;20030;-79
2023/10/23 10:17:15;;;;;;;54.90;10.52;;;;;;;24.93;45.02;95414.31;5045032;28;20032;-80
2023/10/23 10:19:42;;;;;;;56.00;10.32;;;;;;;25.53;43.82;95413.81;5166302;23;20083;-79
2023/10/23 10:22:13;;;;;;;45.10;10.90;;;;;;;25.73;42.83;95407.94;5056472;28;20041;-79
2023/10/23 10:24:39;;;;;;;33.80;9.35;;;;;;;25.86;42.41;95375.91;5053796;28;20220;-80
2023/10/23 10:27:05;;;;;;;38.83;9.20;;;;;;;26.06;42.29;95398.34;5055663;28;20029;-79
2023/10/23 10:29:31;;;;;;;42.38;10.70;;;;;;;25.86;41.86;95372.44;5017261;28;20224;-80
2023/10/23 10:32:05;;;;;;;36.70;9.32;;;;;;;25.69;42.33;95398.97;5019888;28;20281;-81
2023/10/23 10:34:35;;;;;;;44.58;9.35;;;;;;;25.03;43.27;95390.41;4969620;28;20035;-78
2023/10/23 10:37:07;;;;;;;51.33;9.75;;;;;;;24.88;43.54;95394.78;4999675;28;20709;-79
2023/10/23 10:39:48;;;;;;;31.40;9.43;;;;;;;24.92;44.07;95392.97;5017940;28;20990;-80
2023/10/23 10:42:18;;;;;;;40.15;9.18;;;;;;;24.49;45.09;95400.22;5022092;28;20534;-80
2023/10/23 10:44:54;;;;;;;46.20;9.55;;;;;;;24.46;44.96;95368.41;5023245;28;20736;-79
2023/10/23 10:47:21;;;;;;;48.13;10.27;;;;;;;24.44;44.99;95388.88;5026765;28;20049;-78
2023/10/23 10:49:48;;;;;;;36.47;9.45;;;;;;;24.20;45.56;95371.75;5025956;28;20084;-79
2023/10/23 10:52:32;;;;;;;37.90;8.85;;;;;;;24.50;45.09;95355.72;5021846;28;21144;-79
2023/10/23 10:55:01;;;;;;;39.55;10.10;;;;;;;24.82;44.06;95356.31;5031375;28;20233;-79
2023/10/23 10:57:27;;;;;;;40.25;9.57;;;;;;;25.17;43.28;95353.50;5031259;28;20037;-78
2023/10/23 10:59:58;;;;;;;41.15;8.82;;;;;;;25.38;42.83;95372.06;5033665;28;20040;-78
2023/10/23 11:02:23;;;;;;;42.67;10.48;;;;;;;25.45;42.33;95353.16;5035319;28;20171;-80
2023/10/23 11:04:49;;;;;;;39.10;8.70;;;;;;;25.37;41.54;95365.06;5033983;28;20397;-78
2023/10/23 11:07:19;;;;;;;43.20;9.50;;;;;;;25.36;41.86;95352.63;5039355;28;20487;-79
2023/10/23 11:09:44;;;;;;;37.35;9.52;;;;;;;25.28;40.26;95329.22;5033587;28;20060;-78
2023/10/23 11:12:10;;;;;;;34.58;8.98;;;;;;;25.20;40.20;95316.69;5037127;28;20563;-79
2023/10/23 11:14:38;;;;;;;38.60;8.95;;;;;;;25.60;40.16;95365.06;5031970;28;20041;-78
2023/10/23 11:17:05;;;;;;;53.78;10.10;;;;;;;26.05;39.34;95347.84;5039109;28;20051;-79
2023/10/23 11:19:31;;;;;;;44.08;8.43;;;;;;;26.18;38.31;95321.22;5037805;28;20179;-79